Flight Track Log - Related Links

Times and Time Zones

All times are in EDT time to prevent confusion due to time zone crossing. See the SKW5517 flight status page for this flight to view local times or setup timezone preferences in your user account.

Time Position Orientation Groundspeed Altitude Reporting Facility
EDT Latitude Longitude Course Direction KTS MPH feet Rate Location/Type
Sat 05:42:54 PM 47.9347 -97.1811 227° Southwest 153 176 1,700  Level Minneapolis Center
Sat 05:43:43 PM 47.8969 -97.1811 180° South 181 208 2,900 1,482 Climbing Minneapolis Center
Sat 05:44:19 PM 47.8731 -97.1817 181° South 180 207 3,800 1,982 Climbing Minneapolis Center
Sat 05:45:32 PM 47.8250 -97.2156 205° Southwest 211 243 6,500 2,844 Climbing Minneapolis Center
Sat 05:46:00 PM 47.6371 -97.6184 224° Southwest  Level FlightAware Approximate
Sat 05:46:34 PM 47.8036 -97.3361 255° West 242 278 10,200  Level Minneapolis Center
Sat 05:47:00 PM 47.5606 -97.7278 224° Southwest  Level FlightAware Approximate
Sat 05:47:35 PM 47.7800 -97.4444 252° West 261 300 13,400  Level Minneapolis Center
Sat 05:48:00 PM 47.4864 -97.8406 227° Southwest  Level FlightAware Approximate
Sat 05:48:37 PM 47.7103 -97.5522 226° Southwest 288 331 16,800  Level Minneapolis Center
Sat 05:49:38 PM 47.6511 -97.6408 225° Southwest 297 342 19,100 2,262 Climbing Minneapolis Center
Sat 05:50:39 PM 47.5883 -97.7331 225° Southwest 306 352 21,400 1,951 Climbing Minneapolis Center
Sat 05:51:41 PM 47.5194 -97.8353 225° Southwest 313 360 23,100 1,902 Climbing Minneapolis Center
Sat 05:52:42 PM 47.4564 -97.9275 225° Southwest 320 368 25,300 1,805 Climbing Minneapolis Center
Sat 05:53:44 PM 47.3869 -98.0267 224° Southwest 338 389 26,800 1,366 Climbing Minneapolis Center
Sat 05:54:45 PM 47.3169 -98.1286 225° Southwest 351 404 28,100 1,220 Climbing Minneapolis Center
Sat 05:55:47 PM 47.2469 -98.2303 225° Southwest 354 407 29,300 1,122 Climbing Minneapolis Center
Sat 05:56:48 PM 47.1731 -98.3356 224° Southwest 357 411 30,400 1,024 Climbing Minneapolis Center
Sat 05:57:50 PM 47.1025 -98.4378 225° Southwest 363 418 31,400 780 Climbing Minneapolis Center
Sat 05:58:51 PM 47.0294 -98.5428 224° Southwest 367 422 32,000 295 Climbing Minneapolis Center
Sat 05:59:52 PM 46.9531 -98.6503 224° Southwest 375 432 32,000  Level Minneapolis Center
Sat 06:00:54 PM 46.8444 -98.7578 214° Southwest 390 449 32,000  Level Minneapolis Center
Sat 06:01:55 PM 46.7483 -98.8361 209° Southwest 395 455 32,000  Level Minneapolis Center
Sat 06:02:57 PM 46.6547 -98.9164 210° Southwest 394 453 32,000  Level Minneapolis Center
Sat 06:03:58 PM 46.5600 -98.9947 210° Southwest 393 452 32,000  Level Minneapolis Center
Sat 06:05:00 PM 46.4669 -99.0750 211° Southwest 391 450 32,000  Level Minneapolis Center
Sat 06:06:01 PM 46.3728 -99.1519 209° Southwest 390 449 32,000  Level Minneapolis Center
Sat 06:07:02 PM 46.2803 -99.2294 210° Southwest 387 445 32,000  Level Minneapolis Center
Sat 06:08:04 PM 46.1836 -99.3089 210° Southwest 385 443 32,000  Level Minneapolis Center
Sat 06:09:05 PM 46.0908 -99.3856 210° Southwest 385 443 32,000  Level Minneapolis Center
Sat 06:10:06 PM 45.9808 -99.4775 210° Southwest 382 440 32,000  Level Minneapolis Center
Sat 06:11:08 PM 45.8886 -99.5536 210° Southwest 383 441 32,000  Level Minneapolis Center
Sat 06:12:09 PM 45.7956 -99.6275 209° Southwest 383 441 32,000  Level Minneapolis Center
Sat 06:13:10 PM 45.7025 -99.7003 209° Southwest 382 440 32,000  Level Minneapolis Center
Sat 06:14:12 PM 45.6106 -99.7753 210° Southwest 382 440 32,000  Level Minneapolis Center
Sat 06:15:13 PM 45.5178 -99.8492 209° Southwest 382 440 32,000  Level Minneapolis Center
Sat 06:16:14 PM 45.4258 -99.9225 209° Southwest 382 440 32,000  Level Minneapolis Center
Sat 06:17:15 PM 45.3528 -99.9819 210° Southwest 381 438 32,000  Level Minneapolis Center
Sat 06:18:17 PM 45.2419 -100.0692 209° Southwest 382 440 32,000  Level Minneapolis Center
Sat 06:19:18 PM 45.1328 -100.1564 209° Southwest 382 440 32,000  Level Minneapolis Center
Sat 06:20:20 PM 45.0414 -100.2281 209° Southwest 383 441 32,000  Level Minneapolis Center
Sat 06:21:21 PM 44.9492 -100.3008 209° Southwest 384 442 32,000  Level Minneapolis Center
Sat 06:22:22 PM 44.8569 -100.3739 209° Southwest 383 441 32,000  Level Minneapolis Center
Sat 06:23:24 PM 44.7633 -100.4469 209° Southwest 384 442 32,000  Level Minneapolis Center
Sat 06:24:25 PM 44.6694 -100.5203 209° Southwest 386 444 32,000  Level Minneapolis Center
Sat 06:25:26 PM 44.5750 -100.5914 208° Southwest 386 444 32,000  Level Minneapolis Center
Sat 06:26:27 PM 44.4617 -100.6786 209° Southwest 388 447 32,000  Level Minneapolis Center
Sat 06:27:29 PM 44.3678 -100.7500 209° Southwest 386 444 32,000  Level Minneapolis Center
Sat 06:28:30 PM 44.2739 -100.8217 209° Southwest 384 442 32,000  Level Minneapolis Center
Sat 06:29:31 PM 44.1792 -100.8942 209° Southwest 386 444 32,000  Level Minneapolis Center
Sat 06:30:33 PM 44.0842 -100.9661 209° Southwest 388 447 32,000  Level Minneapolis Center
Sat 06:31:34 PM 43.9894 -101.0378 209° Southwest 388 447 32,000  Level Minneapolis Center
Sat 06:32:35 PM 43.8950 -101.1119 210° Southwest 389 448 32,000  Level Minneapolis Center
Sat 06:33:36 PM 43.7994 -101.1831 208° Southwest 390 449 32,000  Level Minneapolis Center
Sat 06:34:38 PM 43.7039 -101.2528 208° Southwest 390 449 32,000  Level Minneapolis Center
Sat 06:35:39 PM 43.6094 -101.3258 209° Southwest 389 448 32,000  Level Minneapolis Center
Sat 06:36:31 PM 43.5131 -101.3947 207° Southwest 389 448 32,000  Level Denver Center
Sat 06:37:33 PM 43.4178 -101.4656 208° Southwest 390 449 32,000  Level Denver Center
Sat 06:38:34 PM 43.3214 -101.5353 208° Southwest 392 451 32,000  Level Denver Center
Sat 06:39:36 PM 43.2239 -101.6022 207° Southwest 393 452 32,000  Level Denver Center
Sat 06:40:37 PM 43.1261 -101.6697 207° Southwest 395 455 32,000  Level Denver Center
Sat 06:41:39 PM 43.0158 -101.7425 206° Southwest 398 458 32,000  Level Denver Center
Sat 06:42:40 PM 42.9228 -101.8044 206° Southwest 394 453 32,000  Level Denver Center
Sat 06:43:42 PM 42.8111 -101.8778 206° Southwest 396 456 32,000  Level Denver Center
Sat 06:44:43 PM 42.7175 -101.9408 206° Southwest 395 455 32,000  Level Denver Center
Sat 06:45:45 PM 42.6067 -102.0131 206° Southwest 395 455 32,000  Level Denver Center
Sat 06:46:46 PM 42.5114 -102.0767 206° Southwest 396 456 32,000  Level Denver Center
Sat 06:47:48 PM 42.4172 -102.1378 206° Southwest 393 452 32,000  Level Denver Center
Sat 06:48:49 PM 42.3044 -102.2117 206° Southwest 401 461 32,000  Level Denver Center
Sat 06:49:51 PM 42.2100 -102.2728 206° Southwest 395 455 32,000  Level Denver Center
Sat 06:50:52 PM 42.0986 -102.3450 206° Southwest 396 456 32,000  Level Denver Center
Sat 06:51:54 PM 42.0036 -102.4067 206° Southwest 395 455 32,000  Level Denver Center
Sat 06:52:55 PM 41.9083 -102.4683 206° Southwest 395 455 32,000  Level Denver Center
Sat 06:53:57 PM 41.7972 -102.5392 205° Southwest 396 456 32,000  Level Denver Center
Sat 06:54:58 PM 41.7019 -102.5994 205° Southwest 394 453 32,000  Level Denver Center
Sat 06:56:00 PM 41.5917 -102.6714 206° Southwest 394 453 32,000  Level Denver Center
Sat 06:57:01 PM 41.4956 -102.7308 205° Southwest 396 456 32,000  Level Denver Center
Sat 06:58:03 PM 41.4000 -102.7914 205° Southwest 396 456 32,000  Level Denver Center
Sat 06:59:04 PM 41.2889 -102.8617 205° Southwest 394 453 32,000  Level Denver Center
Sat 07:00:05 PM 41.1833 -102.9272 205° Southwest 394 453 32,000  Level Denver Center
Sat 07:01:07 PM 41.0872 -103.0006 210° Southwest 395 455 32,000  Level Denver Center
Sat 07:02:08 PM 41.0167 -103.0956 225° Southwest 380 437 32,000  Level Denver Center
Sat 07:03:09 PM 40.9389 -103.2022 226° Southwest 380 437 32,000  Level Denver Center
Sat 07:04:11 PM 40.8658 -103.3039 226° Southwest 378 435 32,000 -146 Level Denver Center
Sat 07:05:12 PM 40.7928 -103.4064 227° Southwest 380 437 31,700 -1,230 Descending Denver Center
Sat 07:06:13 PM 40.7156 -103.5111 226° Southwest 392 451 29,500 -2,000 Descending Denver Center
Sat 07:07:15 PM 40.6378 -103.6197 227° Southwest 403 464 27,600 -2,000 Descending Denver Center
Sat 07:08:16 PM 40.5611 -103.7258 226° Southwest 396 456 25,400 -2,049 Descending Denver Center
Sat 07:09:18 PM 40.4875 -103.8256 226° Southwest 380 437 23,400 -1,756 Descending Denver Center
Sat 07:10:19 PM 40.4100 -103.9322 226° Southwest 377 434 21,800 -1,377 Descending Denver Center
Sat 07:11:20 PM 40.3469 -104.0183 226° Southwest 327 376 20,600 -1,220 Descending Denver Center
Sat 07:12:22 PM 40.2714 -104.0981 219° Southwest 319 367 19,300 -1,366 Descending Denver Center
Sat 07:13:23 PM 40.2025 -104.1731 220° Southwest 320 368 17,800 -1,415 Descending Denver Center
Sat 07:14:25 PM 40.1347 -104.2469 220° Southwest 316 364 16,400 -1,415 Descending Denver Center
Sat 07:15:26 PM 40.0628 -104.3231 219° Southwest 310 357 14,900 -1,222 Descending Denver Center
Sat 07:16:13 PM 40.0167 -104.3833 225° Southwest 292 336 14,200 -953 Descending Denver TRACON
Sat 07:17:13 PM 39.9500 -104.4500 217° Southwest 298 343 13,200 -1,263 Descending Denver TRACON
Sat 07:18:07 PM 39.9000 -104.5000 218° Southwest 280 322 11,800 -1,403 Descending Denver TRACON
Sat 07:18:30 PM 39.8692 -104.4994 179° South 271 312 11,400 -565 Descending Denver Center
Sat 07:19:32 PM 39.7942 -104.5017 181° South 248 285 11,000 -634 Descending Denver Center
Sat 07:20:33 PM 39.7372 -104.5031 181° South 203 234 10,100 -1,022 Descending Denver Center
Sat 07:21:47 PM 39.6772 -104.5281 198° South 207 238 8,700 -1,200 Descending Denver Center
Sat 07:22:48 PM 39.6761 -104.5933 269° West 204 235 7,400 -836 Descending Denver Center
Sat 07:23:49 PM 39.7258 -104.6219 336° Northwest 201 231 7,000 -341 Descending Denver Center
Sat 07:24:51 PM 39.7733 -104.6414 343° North 163 188 6,700 -585 Descending Denver Center
Sat 07:25:52 PM 39.8131 -104.6417 360° North 143 165 5,800 -639 Descending Denver Center
Sat 07:26:53 PM 39.8478 -104.6419 360° North 120 138 5,400 -393 Descending Denver Center

Login

Don't have an account? Register now (free) for customized features, flight alerts, and more!